createdAt,value
2023-03-08T00:00:44.332Z,35.53
2023-03-08T00:03:14.790Z,36.37
2023-03-08T00:05:42.199Z,34.83
2023-03-08T00:08:09.144Z,38.37
2023-03-08T00:10:36.866Z,37.87
2023-03-08T00:13:03.760Z,32.67
2023-03-08T00:15:30.714Z,37.83
2023-03-08T00:17:57.649Z,34.57
2023-03-08T00:20:24.635Z,40.23
2023-03-08T00:22:51.733Z,34.50
2023-03-08T00:25:18.902Z,35.97
2023-03-08T00:27:46.020Z,33.57
2023-03-08T00:30:14.317Z,38.93
2023-03-08T00:32:41.413Z,38.10
2023-03-08T00:35:09.260Z,31.63
2023-03-08T00:37:36.254Z,34.80
2023-03-08T00:40:04.124Z,36.00
2023-03-08T00:42:31.000Z,38.87
2023-03-08T00:44:57.840Z,31.97
2023-03-08T00:47:24.760Z,36.13
2023-03-08T00:49:51.727Z,35.83
2023-03-08T00:52:18.723Z,37.57
2023-03-08T00:54:45.626Z,39.70
2023-03-08T00:57:12.487Z,33.60
2023-03-08T00:59:40.464Z,36.73
2023-03-08T01:02:07.381Z,37.07
2023-03-08T01:04:34.562Z,32.53
2023-03-08T01:07:01.554Z,34.90
2023-03-08T01:09:28.458Z,38.57
2023-03-08T01:11:55.385Z,38.17
2023-03-08T01:14:22.385Z,35.37
2023-03-08T01:16:49.380Z,35.47
2023-03-08T01:19:16.627Z,36.13
2023-03-08T01:21:43.525Z,30.77
2023-03-08T01:24:10.469Z,33.20
2023-03-08T01:26:37.354Z,34.37
2023-03-08T01:29:04.282Z,36.00
2023-03-08T01:31:31.630Z,34.20
2023-03-08T01:33:58.965Z,37.67
2023-03-08T01:36:27.862Z,38.43
2023-03-08T01:38:55.186Z,39.70
2023-03-08T01:41:29.760Z,34.87
2023-03-08T01:43:57.269Z,35.73
2023-03-08T01:46:35.994Z,35.43
2023-03-08T01:49:12.405Z,30.97
2023-03-08T01:52:02.784Z,38.73
2023-03-08T01:54:41.549Z,37.90
2023-03-08T01:57:23.873Z,34.60
2023-03-08T01:59:54.787Z,38.03
2023-03-08T02:02:28.449Z,45.97
2023-03-08T02:04:55.762Z,36.57
2023-03-08T02:07:22.681Z,37.73
2023-03-08T02:09:50.432Z,39.67
2023-03-08T02:12:17.654Z,35.43
2023-03-08T02:14:45.300Z,32.30
2023-03-08T02:17:12.813Z,34.80
2023-03-08T02:19:54.313Z,32.63
2023-03-08T02:22:21.832Z,37.47
2023-03-08T02:24:48.960Z,37.67
2023-03-08T02:27:24.889Z,38.77
2023-03-08T02:29:52.730Z,37.17
2023-03-08T02:32:20.348Z,39.87
2023-03-08T02:34:47.187Z,45.23
2023-03-08T02:37:14.187Z,38.80
2023-03-08T02:39:41.181Z,36.70
2023-03-08T02:42:08.247Z,36.30
2023-03-08T02:44:35.185Z,39.90
2023-03-08T02:47:02.206Z,39.00
2023-03-08T02:49:29.128Z,39.30
2023-03-08T02:51:56.007Z,38.57
2023-03-08T02:54:22.939Z,36.90
2023-03-08T02:56:49.881Z,39.03
2023-03-08T02:59:16.857Z,34.23
2023-03-08T03:01:43.838Z,37.13
2023-03-08T03:04:10.745Z,42.13
2023-03-08T03:06:37.706Z,36.90
2023-03-08T03:09:11.345Z,35.73
2023-03-08T03:11:41.077Z,32.83
2023-03-08T03:14:08.333Z,39.17
2023-03-08T03:16:36.748Z,40.13
2023-03-08T03:19:04.237Z,38.10
2023-03-08T03:21:31.287Z,35.47
2023-03-08T03:23:58.175Z,36.73
2023-03-08T03:26:25.640Z,37.97
2023-03-08T03:28:52.888Z,41.57
2023-03-08T03:31:22.890Z,36.50
2023-03-08T03:33:51.316Z,37.50
2023-03-08T03:36:21.910Z,33.10
2023-03-08T03:38:49.909Z,44.43
2023-03-08T03:41:23.696Z,41.93
2023-03-08T03:43:51.544Z,32.00
2023-03-08T03:46:20.847Z,39.53
2023-03-08T03:48:48.025Z,36.67
2023-03-08T03:51:18.569Z,35.83
2023-03-08T03:53:46.335Z,44.40
2023-03-08T03:56:25.332Z,37.13
2023-03-08T03:58:53.271Z,33.63
2023-03-08T04:01:27.337Z,37.00
2023-03-08T04:03:55.812Z,42.17
2023-03-08T04:06:31.659Z,38.23
2023-03-08T04:09:05.816Z,41.60
2023-03-08T04:11:37.415Z,35.63
2023-03-08T04:14:05.422Z,37.17
2023-03-08T04:16:36.714Z,44.07
2023-03-08T04:19:08.614Z,35.83
2023-03-08T04:21:36.119Z,42.97
2023-03-08T04:24:03.799Z,36.40
2023-03-08T04:26:30.822Z,39.10
2023-03-08T04:28:57.869Z,38.97
2023-03-08T04:31:29.474Z,40.73
2023-03-08T04:33:58.255Z,39.90
2023-03-08T04:36:25.571Z,39.27
2023-03-08T04:38:52.647Z,39.23
2023-03-08T04:41:20.191Z,39.27
2023-03-08T04:43:49.222Z,38.13
2023-03-08T04:46:19.213Z,37.80
2023-03-08T04:48:46.157Z,36.97
2023-03-08T04:51:16.275Z,40.27
2023-03-08T04:53:45.289Z,39.70
2023-03-08T04:56:14.623Z,45.70
2023-03-08T04:58:42.668Z,42.03
2023-03-08T05:01:16.719Z,44.50
2023-03-08T05:03:44.564Z,43.00
2023-03-08T05:06:14.148Z,46.43
2023-03-08T05:08:41.493Z,41.20
2023-03-08T05:11:08.996Z,44.30
2023-03-08T05:13:39.018Z,48.80
2023-03-08T05:16:08.079Z,43.40
2023-03-08T05:18:35.591Z,47.63
2023-03-08T05:21:10.477Z,46.03
2023-03-08T05:23:37.781Z,46.30
2023-03-08T05:26:06.858Z,43.77
2023-03-08T05:28:37.019Z,45.60
2023-03-08T05:31:19.803Z,56.33
2023-03-08T05:33:50.923Z,93.27
2023-03-08T05:36:18.805Z,66.53
2023-03-08T05:38:45.952Z,48.10
2023-03-08T05:41:15.981Z,81.57
2023-03-08T05:43:43.618Z,51.90
2023-03-08T05:46:18.632Z,46.47
2023-03-08T05:48:45.825Z,51.63
2023-03-08T05:51:16.675Z,55.50
2023-03-08T05:53:44.022Z,58.97
2023-03-08T05:56:19.327Z,42.33
2023-03-08T05:58:48.173Z,42.80
2023-03-08T06:01:25.121Z,34.70
2023-03-08T06:03:55.848Z,40.77
2023-03-08T06:06:26.239Z,34.37
2023-03-08T06:08:54.011Z,35.30
2023-03-08T06:11:20.924Z,37.90
2023-03-08T06:13:48.068Z,35.27
2023-03-08T06:16:15.121Z,35.30
2023-03-08T06:18:43.119Z,37.63
2023-03-08T06:21:16.523Z,39.73
2023-03-08T06:23:45.613Z,40.40
2023-03-08T06:26:13.202Z,36.27
2023-03-08T06:28:40.629Z,39.23
2023-03-08T06:31:09.389Z,34.30
2023-03-08T06:33:36.309Z,33.10
2023-03-08T06:36:09.260Z,28.77
2023-03-08T06:38:38.913Z,31.30
2023-03-08T06:41:07.872Z,29.50
2023-03-08T06:43:35.885Z,35.30
2023-03-08T06:46:09.603Z,32.77
2023-03-08T06:48:37.846Z,33.87
2023-03-08T06:51:06.116Z,46.30
2023-03-08T06:53:36.245Z,36.23
2023-03-08T06:56:03.873Z,42.83
2023-03-08T06:58:31.652Z,34.70
2023-03-08T07:01:04.236Z,39.90
2023-03-08T07:03:31.473Z,35.73
2023-03-08T07:06:05.053Z,37.60
2023-03-08T07:08:32.507Z,35.93
2023-03-08T07:11:00.027Z,36.07
2023-03-08T07:13:28.953Z,35.90
2023-03-08T07:15:57.069Z,49.10
2023-03-08T07:18:24.528Z,40.80
2023-03-08T07:20:56.660Z,35.80
2023-03-08T07:23:24.157Z,28.10
2023-03-08T07:25:51.239Z,42.80
2023-03-08T07:28:18.149Z,45.33
2023-03-08T07:30:50.453Z,46.03
2023-03-08T07:33:18.994Z,39.33
2023-03-08T07:35:46.210Z,29.87
2023-03-08T07:38:13.580Z,28.13
2023-03-08T07:40:40.551Z,26.43
2023-03-08T07:43:08.249Z,25.67
2023-03-08T07:45:35.434Z,24.80
2023-03-08T07:48:02.466Z,29.83
2023-03-08T07:50:29.745Z,44.70
2023-03-08T07:52:56.734Z,36.43
2023-03-08T07:55:25.483Z,17.80
2023-03-08T07:57:52.629Z,16.50
2023-03-08T08:00:20.413Z,16.60
2023-03-08T08:02:48.118Z,19.20
2023-03-08T08:05:15.423Z,25.27
2023-03-08T08:07:42.347Z,30.93
2023-03-08T08:10:10.167Z,48.03
2023-03-08T08:12:37.330Z,22.50
2023-03-08T08:15:04.766Z,16.57
2023-03-08T08:17:31.778Z,13.67
2023-03-08T08:19:59.664Z,14.97
2023-03-08T08:22:26.576Z,9.83
2023-03-08T08:24:53.518Z,9.23
2023-03-08T08:27:20.581Z,17.47
2023-03-08T08:29:49.573Z,18.10
2023-03-08T08:32:16.533Z,11.17
2023-03-08T08:34:43.566Z,8.80
2023-03-08T08:37:11.140Z,10.23
2023-03-08T08:39:38.672Z,15.37
2023-03-08T08:42:05.855Z,12.30
2023-03-08T08:44:32.833Z,8.57
2023-03-08T08:46:59.819Z,8.97
2023-03-08T08:49:26.750Z,8.30
2023-03-08T08:51:53.711Z,13.40
2023-03-08T08:54:20.773Z,9.93
2023-03-08T08:56:47.870Z,11.10
2023-03-08T08:59:16.370Z,43.57
2023-03-08T09:01:47.071Z,56.50
2023-03-08T09:04:16.653Z,27.73
2023-03-08T09:06:43.891Z,9.03
2023-03-08T09:09:10.936Z,8.17
2023-03-08T09:11:53.302Z,8.73
2023-03-08T09:14:21.622Z,8.50
2023-03-08T09:16:48.690Z,7.17
2023-03-08T09:19:15.732Z,8.97
2023-03-08T09:21:43.006Z,8.17
2023-03-08T09:24:12.138Z,9.27
2023-03-08T09:26:39.229Z,9.73
2023-03-08T09:29:07.477Z,11.53
2023-03-08T09:31:37.702Z,20.47
2023-03-08T09:34:09.323Z,21.00
2023-03-08T09:36:39.535Z,20.03
2023-03-08T09:39:09.192Z,13.87
2023-03-08T09:41:48.268Z,13.60
2023-03-08T09:44:51.610Z,30.67
2023-03-08T09:47:42.796Z,18.10
2023-03-08T09:50:35.886Z,9.20
2023-03-08T09:53:36.954Z,6.70
2023-03-08T09:56:17.073Z,6.97
2023-03-08T09:59:07.084Z,9.83
2023-03-08T10:02:24.421Z,7.47
2023-03-08T10:05:25.434Z,7.20
2023-03-08T10:08:01.269Z,17.40
2023-03-08T10:11:04.182Z,9.60
2023-03-08T10:13:40.769Z,7.83
2023-03-08T10:16:20.847Z,8.33
2023-03-08T10:19:05.950Z,7.53
2023-03-08T10:21:38.103Z,7.47
2023-03-08T10:24:29.389Z,7.57
2023-03-08T10:27:23.690Z,7.07
2023-03-08T10:29:53.700Z,7.97
2023-03-08T10:32:22.090Z,6.93
2023-03-08T10:34:49.306Z,6.77
2023-03-08T10:37:17.089Z,23.00
2023-03-08T10:39:54.801Z,11.60
2023-03-08T10:42:25.494Z,6.53
2023-03-08T10:45:00.393Z,6.40
2023-03-08T10:47:36.746Z,7.30
2023-03-08T10:50:14.351Z,6.87
2023-03-08T10:52:42.125Z,8.60
2023-03-08T10:55:15.297Z,6.40
2023-03-08T10:57:55.702Z,4.60
2023-03-08T11:00:33.415Z,29.50
2023-03-08T11:03:13.683Z,20.73
2023-03-08T11:05:57.865Z,6.30
2023-03-08T11:08:38.790Z,6.30
2023-03-08T11:11:14.808Z,9.93
2023-03-08T11:13:47.675Z,10.03
2023-03-08T11:16:46.406Z,5.97
2023-03-08T11:19:40.444Z,8.43
2023-03-08T11:22:45.020Z,5.30
2023-03-08T11:25:39.662Z,6.60
2023-03-08T11:28:51.044Z,7.23
2023-03-08T11:31:45.860Z,8.53
2023-03-08T11:35:13.945Z,38.10
2023-03-08T11:38:00.125Z,6.03
2023-03-08T11:40:47.420Z,6.90
2023-03-08T11:43:28.011Z,6.20
2023-03-08T11:46:24.743Z,5.30
2023-03-08T11:49:29.741Z,5.80
2023-03-08T11:52:08.240Z,6.73
2023-03-08T11:55:07.869Z,6.77
2023-03-08T11:57:52.355Z,18.97
2023-03-08T12:00:42.036Z,26.40
2023-03-08T12:03:23.197Z,7.00
2023-03-08T12:06:01.852Z,6.27
2023-03-08T12:08:49.427Z,6.17
2023-03-08T12:11:27.398Z,5.43
2023-03-08T12:14:10.727Z,6.37
2023-03-08T12:17:31.729Z,5.43
2023-03-08T12:19:59.007Z,5.37
2023-03-08T12:22:48.308Z,5.83
2023-03-08T12:25:30.997Z,6.73
2023-03-08T12:28:24.380Z,6.23
2023-03-08T12:31:28.716Z,5.83
2023-03-08T12:33:58.805Z,7.20
2023-03-08T12:36:44.196Z,5.87
2023-03-08T12:39:35.961Z,4.60
2023-03-08T12:42:15.895Z,4.67
2023-03-08T12:44:44.518Z,5.90
2023-03-08T12:47:14.429Z,6.10
2023-03-08T12:49:46.107Z,5.07
2023-03-08T12:52:19.418Z,6.20
2023-03-08T12:55:33.950Z,5.57
2023-03-08T12:58:04.244Z,5.60
2023-03-08T13:00:37.467Z,8.23
2023-03-08T13:03:26.579Z,10.67
2023-03-08T13:05:53.530Z,9.80
2023-03-08T13:09:16.152Z,9.90
2023-03-08T13:12:16.477Z,11.40
2023-03-08T13:15:03.375Z,9.47
2023-03-08T13:17:39.458Z,9.93
2023-03-08T13:20:12.350Z,9.60
2023-03-08T13:23:02.290Z,12.37
2023-03-08T13:26:17.155Z,10.40
2023-03-08T13:28:48.419Z,12.93
2023-03-08T13:31:24.930Z,11.97
2023-03-08T13:33:54.674Z,23.67
2023-03-08T13:36:28.801Z,25.07
2023-03-08T13:39:08.645Z,22.40
2023-03-08T13:41:39.262Z,10.17
2023-03-08T13:44:27.756Z,9.53
2023-03-08T13:47:00.919Z,9.33
2023-03-08T13:49:41.317Z,11.03
2023-03-08T13:52:19.447Z,8.70
2023-03-08T13:55:01.820Z,9.73
2023-03-08T13:57:36.669Z,8.43
2023-03-08T14:00:36.477Z,11.60
2023-03-08T14:03:07.446Z,9.73
2023-03-08T14:05:43.977Z,10.27
2023-03-08T14:08:25.054Z,11.80
2023-03-08T14:11:05.584Z,11.07
2023-03-08T14:13:34.155Z,12.37
2023-03-08T14:16:04.472Z,9.73
2023-03-08T14:18:43.395Z,12.90
2023-03-08T14:21:26.651Z,8.80
2023-03-08T14:24:00.980Z,11.57
2023-03-08T14:26:41.313Z,9.27
2023-03-08T14:29:22.201Z,9.43
2023-03-08T14:31:59.167Z,9.03
2023-03-08T14:34:34.003Z,9.93
2023-03-08T14:37:19.383Z,9.60
2023-03-08T14:39:50.161Z,16.20
2023-03-08T14:42:32.701Z,18.27
2023-03-08T14:45:04.992Z,15.20
2023-03-08T14:47:34.446Z,10.27
2023-03-08T14:50:07.390Z,30.77
2023-03-08T14:52:46.821Z,30.80
2023-03-08T14:55:43.146Z,18.70
2023-03-08T14:58:13.634Z,12.77
2023-03-08T15:00:52.757Z,9.90
2023-03-08T15:03:19.725Z,8.70
2023-03-08T15:05:46.785Z,16.43
2023-03-08T15:08:16.510Z,9.23
2023-03-08T15:10:44.393Z,9.57
2023-03-08T15:13:21.134Z,9.57
2023-03-08T15:15:49.285Z,9.33
2023-03-08T15:18:16.946Z,10.33
2023-03-08T15:20:49.615Z,11.10
2023-03-08T15:23:27.806Z,11.30
2023-03-08T15:25:54.988Z,10.10
2023-03-08T15:28:24.038Z,13.43
2023-03-08T15:30:52.953Z,9.77
2023-03-08T15:33:23.285Z,9.00
2023-03-08T15:35:51.256Z,8.67
2023-03-08T15:38:19.306Z,11.90
2023-03-08T15:40:46.208Z,8.53
2023-03-08T15:43:13.193Z,11.57
2023-03-08T15:45:40.907Z,10.27
2023-03-08T15:48:14.607Z,9.47
2023-03-08T15:50:42.988Z,10.83
2023-03-08T15:53:11.304Z,8.93
2023-03-08T15:55:39.655Z,18.00
2023-03-08T15:58:08.920Z,16.70
2023-03-08T16:00:36.604Z,21.20
2023-03-08T16:03:03.821Z,16.47
2023-03-08T16:05:31.719Z,12.80
2023-03-08T16:08:03.609Z,33.00
2023-03-08T16:10:40.640Z,15.73
2023-03-08T16:13:08.141Z,36.40
2023-03-08T16:15:35.155Z,16.87
2023-03-08T16:18:02.064Z,16.30
2023-03-08T16:20:29.043Z,10.80
2023-03-08T16:22:56.256Z,9.30
2023-03-08T16:25:23.448Z,11.80
2023-03-08T16:27:50.442Z,10.63
2023-03-08T16:30:17.566Z,11.90
2023-03-08T16:32:44.617Z,8.27
2023-03-08T16:35:12.951Z,14.13
2023-03-08T16:37:39.889Z,12.87
2023-03-08T16:40:07.964Z,12.20
2023-03-08T16:42:35.061Z,11.27
2023-03-08T16:45:02.207Z,9.00
2023-03-08T16:47:32.372Z,12.20
2023-03-08T16:50:01.039Z,14.47
2023-03-08T16:52:28.565Z,10.63
2023-03-08T16:54:57.181Z,11.50
2023-03-08T16:57:24.281Z,11.33
2023-03-08T16:59:51.277Z,13.57
2023-03-08T17:02:21.635Z,11.70
2023-03-08T17:04:49.734Z,12.90
2023-03-08T17:07:17.711Z,15.13
2023-03-08T17:09:46.364Z,13.83
2023-03-08T17:12:13.518Z,17.33
2023-03-08T17:14:41.165Z,17.47
2023-03-08T17:17:10.276Z,14.63
2023-03-08T17:19:39.728Z,23.70
2023-03-08T17:22:08.598Z,18.70
2023-03-08T17:24:35.541Z,19.17
2023-03-08T17:27:02.684Z,17.40
2023-03-08T17:29:29.792Z,16.77
2023-03-08T17:31:56.848Z,15.33
2023-03-08T17:34:24.225Z,15.40
2023-03-08T17:36:51.824Z,16.37
2023-03-08T17:39:19.929Z,17.30
2023-03-08T17:41:47.297Z,18.73
2023-03-08T17:44:14.555Z,21.17
2023-03-08T17:46:41.639Z,17.53
2023-03-08T17:49:08.728Z,18.77
2023-03-08T17:51:35.644Z,22.90
2023-03-08T17:54:03.280Z,19.77
2023-03-08T17:56:32.155Z,21.90
2023-03-08T17:59:01.398Z,21.80
2023-03-08T18:01:30.833Z,29.80
2023-03-08T18:03:58.195Z,23.60
2023-03-08T18:06:35.943Z,30.13
2023-03-08T18:09:15.665Z,23.00
2023-03-08T18:11:43.189Z,22.67
2023-03-08T18:14:13.785Z,24.10
2023-03-08T18:16:42.513Z,21.43
2023-03-08T18:19:10.812Z,21.13
2023-03-08T18:21:40.896Z,19.10
2023-03-08T18:24:12.178Z,17.33
2023-03-08T18:26:39.404Z,19.60
2023-03-08T18:29:06.314Z,20.37
2023-03-08T18:31:35.098Z,15.77
2023-03-08T18:34:02.903Z,20.37
2023-03-08T18:36:29.846Z,18.97
2023-03-08T18:38:57.039Z,23.30
2023-03-08T18:41:29.515Z,19.80
2023-03-08T18:43:58.310Z,17.87
2023-03-08T18:46:29.220Z,17.30
2023-03-08T18:49:01.002Z,18.53
2023-03-08T18:51:29.385Z,20.73
2023-03-08T18:53:57.881Z,16.13
2023-03-08T18:56:26.919Z,19.43
2023-03-08T18:59:00.537Z,20.13
2023-03-08T19:01:30.319Z,17.53
2023-03-08T19:04:00.534Z,17.10
2023-03-08T19:06:27.782Z,18.50
2023-03-08T19:08:54.832Z,17.80
2023-03-08T19:11:25.840Z,17.63
2023-03-08T19:13:53.116Z,18.53
2023-03-08T19:16:31.518Z,31.77
2023-03-08T19:19:04.425Z,58.87
2023-03-08T19:21:43.164Z,30.80
2023-03-08T19:24:13.480Z,23.33
2023-03-08T19:26:42.997Z,16.50
2023-03-08T19:29:27.486Z,18.87
2023-03-08T19:31:55.864Z,18.53
2023-03-08T19:34:33.526Z,16.60
2023-03-08T19:37:01.467Z,18.57
2023-03-08T19:39:31.940Z,18.17
2023-03-08T19:42:02.832Z,17.83
2023-03-08T19:44:30.966Z,21.03
2023-03-08T19:46:58.056Z,21.30
2023-03-08T19:49:31.063Z,21.70
2023-03-08T19:52:01.408Z,21.70
2023-03-08T19:54:29.671Z,26.00
2023-03-08T19:56:58.150Z,24.97
2023-03-08T19:59:25.913Z,20.83
2023-03-08T20:01:54.888Z,19.30
2023-03-08T20:04:22.830Z,22.00
2023-03-08T20:06:51.215Z,23.80
2023-03-08T20:09:24.052Z,22.03
2023-03-08T20:11:57.381Z,22.30
2023-03-08T20:14:27.272Z,20.97
2023-03-08T20:16:55.440Z,25.93
2023-03-08T20:19:22.708Z,27.37
2023-03-08T20:21:49.762Z,33.60
2023-03-08T20:24:18.967Z,73.23
2023-03-08T20:26:46.445Z,93.23
2023-03-08T20:29:13.808Z,32.03
2023-03-08T20:31:42.257Z,25.97
2023-03-08T20:34:09.495Z,24.30
2023-03-08T20:36:37.669Z,25.67
2023-03-08T20:39:08.957Z,25.03
2023-03-08T20:41:36.100Z,24.73
2023-03-08T20:44:03.254Z,23.73
2023-03-08T20:46:33.202Z,25.67
2023-03-08T20:49:01.131Z,23.70
2023-03-08T20:51:28.558Z,25.10
2023-03-08T20:53:56.328Z,26.80
2023-03-08T20:56:25.288Z,25.83
2023-03-08T20:58:54.906Z,24.73
2023-03-08T21:01:26.396Z,26.80
2023-03-08T21:03:53.408Z,26.77
2023-03-08T21:06:24.441Z,25.87
2023-03-08T21:08:53.420Z,24.20
2023-03-08T21:11:21.731Z,23.07
2023-03-08T21:13:51.004Z,24.10
2023-03-08T21:16:21.316Z,27.50
2023-03-08T21:18:57.730Z,30.27
2023-03-08T21:21:30.379Z,34.83
2023-03-08T21:23:59.897Z,33.20
2023-03-08T21:26:28.717Z,28.03
2023-03-08T21:29:01.800Z,24.53
2023-03-08T21:31:31.386Z,52.80
2023-03-08T21:33:59.067Z,66.93
2023-03-08T21:36:26.015Z,78.40
2023-03-08T21:38:55.272Z,62.53
2023-03-08T21:41:31.801Z,33.10
2023-03-08T21:44:02.059Z,25.10
2023-03-08T21:46:29.346Z,23.20
2023-03-08T21:48:57.107Z,23.60
2023-03-08T21:51:24.563Z,26.30
2023-03-08T21:53:51.489Z,46.97
2023-03-08T21:56:19.609Z,49.27
2023-03-08T21:58:46.518Z,27.03
2023-03-08T22:01:26.809Z,21.17
2023-03-08T22:03:54.579Z,18.33
2023-03-08T22:06:23.504Z,21.27
2023-03-08T22:08:51.093Z,21.63
2023-03-08T22:11:20.208Z,21.77
2023-03-08T22:13:59.594Z,20.53
2023-03-08T22:16:29.088Z,18.43
2023-03-08T22:18:59.320Z,18.03
2023-03-08T22:21:28.027Z,18.83
2023-03-08T22:23:58.397Z,14.50
2023-03-08T22:26:28.163Z,16.03
2023-03-08T22:28:56.289Z,16.17
2023-03-08T22:31:25.932Z,16.20
2023-03-08T22:33:53.060Z,17.27
2023-03-08T22:36:21.441Z,17.20
2023-03-08T22:38:48.467Z,19.20
2023-03-08T22:41:24.853Z,16.13
2023-03-08T22:43:53.002Z,16.77
2023-03-08T22:46:24.777Z,14.37
2023-03-08T22:48:52.737Z,17.50
2023-03-08T22:51:22.020Z,19.90
2023-03-08T22:53:49.977Z,18.60
2023-03-08T22:56:29.493Z,16.20
2023-03-08T22:58:57.704Z,19.63
2023-03-08T23:01:25.527Z,21.63
2023-03-08T23:03:59.463Z,19.73
2023-03-08T23:06:28.661Z,18.83
2023-03-08T23:09:01.514Z,21.10
2023-03-08T23:11:29.169Z,19.03
2023-03-08T23:13:56.279Z,22.90
2023-03-08T23:16:23.348Z,22.27
2023-03-08T23:18:52.108Z,24.50
2023-03-08T23:21:22.746Z,26.20
2023-03-08T23:23:49.673Z,22.80
2023-03-08T23:26:21.262Z,24.50
2023-03-08T23:28:48.252Z,23.93
2023-03-08T23:31:19.012Z,23.60
2023-03-08T23:33:46.501Z,21.83
2023-03-08T23:36:17.332Z,21.47
2023-03-08T23:38:44.807Z,18.93
2023-03-08T23:41:13.653Z,18.93
2023-03-08T23:43:41.593Z,20.47
2023-03-08T23:46:15.778Z,19.67
2023-03-08T23:48:44.561Z,17.60
2023-03-08T23:51:16.035Z,17.23
2023-03-08T23:53:42.953Z,19.00
2023-03-08T23:56:26.613Z,15.43
2023-03-08T23:58:56.084Z,18.67
